Time;durP1;ratioP1;P1;durP2;ratioP2;P2;SDS_P1;SDS_P2;PMS_P1;PMS_P2;Temp;Humidity;BMP_temperature;BMP_pressure;BME280_temperature;BME280_humidity;BME280_pressure;Samples;Min_cycle;Max_cycle;Signal;HPM_P1;HPM_P2
2023/08/24 00:01:47;;;;;;;3.25;1.73;;;24.80;52.40;;;;;;2342041;54;20948;-73
2023/08/24 00:04:14;;;;;;;3.08;1.37;;;24.80;52.50;;;;;;2587966;53;22113;-71
2023/08/24 00:06:41;;;;;;;2.55;1.48;;;24.80;52.60;;;;;;2339461;54;20991;-74
2023/08/24 00:09:08;;;;;;;2.87;1.58;;;24.80;52.70;;;;;;2320400;54;20924;-71
2023/08/24 00:11:34;;;;;;;3.20;1.60;;;24.80;52.70;;;;;;2587658;53;21404;-70
2023/08/24 00:14:00;;;;;;;3.33;1.80;;;24.80;52.70;;;;;;2335936;54;20958;-69
2023/08/24 00:16:27;;;;;;;3.47;1.50;;;24.80;52.80;;;;;;2323937;54;21016;-72
2023/08/24 00:18:53;;;;;;;4.90;1.90;;;24.80;52.80;;;;;;2588269;53;20924;-71
2023/08/24 00:21:22;;;;;;;2.58;1.40;;;24.80;53.00;;;;;;2341853;54;20996;-68
2023/08/24 00:23:52;;;;;;;3.83;1.67;;;24.70;53.00;;;;;;2587423;53;20984;-68
2023/08/24 00:26:19;;;;;;;3.28;1.80;;;24.80;53.20;;;;;;2341370;54;20965;-72
2023/08/24 00:28:47;;;;;;;2.70;1.65;;;24.70;53.20;;;;;;2341666;54;20989;-69
2023/08/24 00:31:15;;;;;;;3.42;1.60;;;24.70;53.20;;;;;;2588631;53;20968;-69
2023/08/24 00:33:42;;;;;;;3.08;1.77;;;24.70;53.20;;;;;;2341110;54;21366;-71
2023/08/24 00:36:08;;;;;;;5.93;1.50;;;24.70;53.20;;;;;;2342263;54;20940;-70
2023/08/24 00:38:35;;;;;;;2.75;1.58;;;24.70;53.20;;;;;;2341697;54;21016;-69
2023/08/24 00:41:01;;;;;;;5.47;1.90;;;24.70;53.20;;;;;;2337655;54;20973;-69
2023/08/24 00:43:28;;;;;;;3.20;1.77;;;24.70;53.30;;;;;;2587290;53;20949;-69
2023/08/24 00:45:56;;;;;;;3.60;2.05;;;24.70;53.40;;;;;;2587922;53;20981;-69
2023/08/24 00:48:25;;;;;;;4.70;2.10;;;24.60;53.30;;;;;;2340232;54;21032;-71
2023/08/24 00:50:52;;;;;;;2.67;1.50;;;24.60;53.30;;;;;;2584936;53;21004;-72
2023/08/24 00:53:20;;;;;;;2.72;1.60;;;24.60;53.30;;;;;;2341022;54;21823;-67
2023/08/24 00:55:47;;;;;;;2.60;1.52;;;24.60;53.30;;;;;;2587753;53;20925;-73
2023/08/24 00:58:14;;;;;;;3.37;1.90;;;24.60;53.40;;;;;;2341995;54;21468;-72
2023/08/24 01:00:40;;;;;;;2.92;1.80;;;24.60;53.50;;;;;;2568810;53;21676;-68
2023/08/24 01:03:07;;;;;;;2.92;1.60;;;24.60;53.50;;;;;;2564152;53;20959;-72
2023/08/24 01:05:33;;;;;;;3.28;1.80;;;24.60;53.50;;;;;;2534124;54;20945;-70
2023/08/24 01:08:00;;;;;;;2.60;1.58;;;24.50;53.50;;;;;;2558061;53;20995;-69
2023/08/24 01:10:28;;;;;;;3.67;1.67;;;24.50;53.50;;;;;;2553021;53;20980;-69
2023/08/24 01:13:07;;;;;;;3.45;2.00;;;24.50;53.60;;;;;;2587385;53;20965;-69
2023/08/24 01:16:36;;;;;;;2.92;1.65;;;24.50;53.80;;;;;;2341973;54;20942;-71
2023/08/24 01:19:02;;;;;;;2.80;1.42;;;24.50;54.00;;;;;;2341553;54;20948;-66
2023/08/24 01:21:29;;;;;;;5.35;2.00;;;24.50;53.70;;;;;;2320620;54;21437;-68
2023/08/24 01:24:10;;;;;;;3.37;1.83;;;24.50;53.70;;;;;;2339775;54;20941;-70
2023/08/24 01:26:40;;;;;;;3.60;2.10;;;24.50;54.30;;;;;;2327109;54;21992;-68
2023/08/24 01:29:07;;;;;;;3.35;2.03;;;24.50;54.10;;;;;;2580590;53;20933;-72
2023/08/24 01:31:33;;;;;;;3.53;2.20;;;24.50;54.20;;;;;;2587045;53;20924;-68
2023/08/24 01:34:01;;;;;;;2.78;1.70;;;24.50;54.30;;;;;;2341887;54;21028;-69
2023/08/24 01:36:28;;;;;;;3.15;1.90;;;24.50;54.30;;;;;;2587284;53;20952;-66
2023/08/24 01:38:59;;;;;;;3.92;1.73;;;24.50;54.30;;;;;;2575663;53;21046;-68
2023/08/24 01:41:28;;;;;;;2.92;1.65;;;24.50;54.30;;;;;;2306725;55;20929;-68
2023/08/24 01:43:55;;;;;;;4.90;1.80;;;24.50;54.20;;;;;;2340606;54;20976;-66
2023/08/24 01:46:22;;;;;;;3.70;1.90;;;24.50;54.20;;;;;;2342186;54;20999;-68
2023/08/24 01:48:48;;;;;;;3.30;2.03;;;24.50;54.20;;;;;;2340709;54;21001;-68
2023/08/24 01:51:15;;;;;;;3.53;1.62;;;24.60;54.30;;;;;;2342142;54;20952;-68
2023/08/24 01:53:41;;;;;;;2.90;1.60;;;24.60;54.30;;;;;;2344574;54;20960;-69
2023/08/24 01:56:10;;;;;;;4.62;2.10;;;24.60;54.30;;;;;;2315545;55;21004;-68
2023/08/24 01:58:36;;;;;;;3.97;2.05;;;24.50;54.40;;;;;;2340996;54;21012;-68
2023/08/24 02:01:02;;;;;;;4.10;2.12;;;24.60;54.50;;;;;;2588107;53;20909;-71
2023/08/24 02:03:30;;;;;;;3.10;2.05;;;24.60;54.50;;;;;;2588136;53;20953;-68
2023/08/24 02:05:56;;;;;;;3.22;2.10;;;24.60;54.50;;;;;;2341357;54;20997;-67
2023/08/24 02:08:26;;;;;;;4.53;2.37;;;24.60;54.50;;;;;;2588011;53;21710;-68
2023/08/24 02:10:52;;;;;;;3.37;2.20;;;24.60;54.50;;;;;;2587275;53;20932;-70
2023/08/24 02:13:18;;;;;;;3.67;2.30;;;24.60;54.50;;;;;;2342762;54;21010;-69
2023/08/24 02:15:45;;;;;;;4.65;2.85;;;24.60;54.50;;;;;;2586573;53;21013;-71
2023/08/24 02:18:11;;;;;;;3.75;2.42;;;24.60;54.50;;;;;;2587918;53;20945;-68
2023/08/24 02:20:37;;;;;;;4.80;2.85;;;24.60;54.50;;;;;;2587601;53;20937;-68
2023/08/24 02:23:04;;;;;;;4.22;2.80;;;24.60;54.60;;;;;;2342287;54;20961;-70
2023/08/24 02:25:32;;;;;;;3.97;2.60;;;24.60;54.70;;;;;;2587820;53;20990;-67
2023/08/24 02:28:00;;;;;;;4.50;2.60;;;24.60;54.70;;;;;;2341683;54;20976;-68
2023/08/24 02:30:26;;;;;;;4.65;2.42;;;24.60;54.80;;;;;;2341702;54;21016;-71
2023/08/24 02:32:52;;;;;;;3.58;2.30;;;24.60;54.90;;;;;;2341103;54;20933;-70
2023/08/24 02:35:19;;;;;;;3.70;2.20;;;24.60;54.90;;;;;;2588249;53;20992;-68
2023/08/24 02:37:45;;;;;;;3.47;2.17;;;24.60;54.90;;;;;;2341592;54;20921;-67
2023/08/24 02:40:12;;;;;;;4.25;2.70;;;24.60;55.00;;;;;;2588129;53;20973;-68
2023/08/24 02:42:38;;;;;;;4.62;2.25;;;24.60;55.20;;;;;;2587586;53;20975;-67
2023/08/24 02:45:05;;;;;;;4.28;2.12;;;24.60;55.20;;;;;;2342429;54;20981;-68
2023/08/24 02:47:32;;;;;;;4.15;1.98;;;24.60;55.30;;;;;;2586184;53;20937;-69
2023/08/24 02:49:59;;;;;;;4.25;2.30;;;24.50;55.20;;;;;;2317133;55;21693;-69
2023/08/24 02:52:25;;;;;;;3.47;2.22;;;24.60;55.40;;;;;;2587680;53;20925;-67
2023/08/24 02:54:54;;;;;;;3.10;2.00;;;24.60;55.40;;;;;;2341005;54;21440;-68
2023/08/24 02:57:21;;;;;;;3.45;2.10;;;24.60;55.40;;;;;;2588181;53;20940;-70
2023/08/24 02:59:48;;;;;;;4.22;2.45;;;24.60;55.50;;;;;;2341558;54;20977;-68
2023/08/24 03:02:14;;;;;;;4.40;2.55;;;24.60;55.60;;;;;;2588094;53;21501;-70
2023/08/24 03:04:43;;;;;;;3.53;2.10;;;24.60;55.60;;;;;;2587481;53;20957;-67
2023/08/24 03:07:12;;;;;;;4.28;2.42;;;24.70;55.60;;;;;;2342324;54;21220;-71
2023/08/24 03:09:54;;;;;;;5.78;2.55;;;24.60;55.60;;;;;;2317137;55;20953;-69
2023/08/24 03:12:21;;;;;;;4.33;2.43;;;24.70;56.10;;;;;;2308753;54;20996;-69
2023/08/24 03:14:50;;;;;;;3.47;2.10;;;24.70;55.80;;;;;;2341023;54;20913;-68
2023/08/24 03:17:17;;;;;;;2.92;1.77;;;24.70;55.80;;;;;;2588200;53;20998;-73
2023/08/24 03:19:44;;;;;;;3.80;1.90;;;24.70;55.70;;;;;;2318724;54;20935;-68
2023/08/24 03:22:10;;;;;;;3.87;2.15;;;24.70;55.60;;;;;;2341908;54;20929;-68
2023/08/24 03:24:37;;;;;;;3.70;2.28;;;24.70;55.80;;;;;;2556315;53;21006;-67
2023/08/24 03:27:03;;;;;;;3.15;1.85;;;24.70;55.70;;;;;;2581210;53;20952;-72
2023/08/24 03:29:30;;;;;;;3.45;1.90;;;24.70;55.70;;;;;;2559781;53;21864;-68
2023/08/24 03:31:57;;;;;;;3.30;1.75;;;24.70;55.60;;;;;;2341842;54;21041;-67
2023/08/24 03:34:24;;;;;;;3.65;2.30;;;24.70;55.60;;;;;;2318190;55;22054;-66
2023/08/24 03:36:50;;;;;;;3.30;2.22;;;24.70;55.70;;;;;;2329932;54;20973;-68
2023/08/24 03:39:18;;;;;;;2.85;1.87;;;24.70;55.80;;;;;;2329633;54;20928;-68
2023/08/24 03:41:44;;;;;;;3.70;2.05;;;24.70;55.80;;;;;;2586999;53;21061;-68
2023/08/24 03:44:13;;;;;;;3.62;2.35;;;24.70;55.70;;;;;;2342024;54;21766;-68
2023/08/24 03:46:45;;;;;;;3.47;2.25;;;24.70;55.70;;;;;;2316809;55;20956;-68
2023/08/24 03:49:12;;;;;;;4.90;2.80;;;24.60;55.80;;;;;;2342074;54;20969;-73
2023/08/24 03:51:39;;;;;;;3.70;2.20;;;24.70;55.90;;;;;;2587080;53;20933;-67
2023/08/24 03:54:06;;;;;;;3.95;1.85;;;24.70;55.90;;;;;;2341841;54;21008;-69
2023/08/24 03:56:32;;;;;;;4.18;2.25;;;24.60;55.80;;;;;;2583370;53;21837;-69
2023/08/24 03:59:01;;;;;;;3.45;2.17;;;24.60;55.70;;;;;;2317870;54;20949;-71
2023/08/24 04:01:28;;;;;;;3.30;1.98;;;24.60;55.80;;;;;;2341324;54;20941;-70
2023/08/24 04:03:55;;;;;;;4.87;1.98;;;24.60;55.80;;;;;;2587705;53;21076;-65
2023/08/24 04:06:21;;;;;;;2.92;1.62;;;24.60;55.70;;;;;;2341162;54;21001;-73
2023/08/24 04:08:47;;;;;;;3.55;2.35;;;24.60;55.80;;;;;;2341272;54;21497;-69
2023/08/24 04:11:14;;;;;;;3.65;2.30;;;24.60;55.90;;;;;;2588641;53;21021;-69
2023/08/24 04:13:40;;;;;;;5.68;2.65;;;24.60;56.00;;;;;;2341166;54;20920;-71
2023/08/24 04:16:06;;;;;;;3.37;2.22;;;24.60;56.10;;;;;;2586515;53;21660;-69
2023/08/24 04:18:34;;;;;;;4.18;2.45;;;24.60;56.70;;;;;;2587895;53;21439;-70
2023/08/24 04:21:00;;;;;;;4.03;2.03;;;24.60;56.10;;;;;;2341173;54;20984;-71
2023/08/24 04:23:27;;;;;;;4.12;2.65;;;24.60;56.10;;;;;;2587833;53;21437;-69
2023/08/24 04:25:54;;;;;;;4.35;2.55;;;24.60;56.20;;;;;;2587188;53;20988;-69
2023/08/24 04:28:23;;;;;;;3.70;2.10;;;24.50;56.30;;;;;;2341665;54;20926;-69
2023/08/24 04:30:53;;;;;;;2.90;2.00;;;24.50;56.30;;;;;;2340947;54;20936;-69
2023/08/24 04:33:20;;;;;;;3.83;2.10;;;24.60;56.20;;;;;;2342029;54;20912;-69
2023/08/24 04:35:49;;;;;;;3.80;2.15;;;24.50;56.10;;;;;;2587644;53;20977;-70
2023/08/24 04:38:16;;;;;;;6.62;2.12;;;24.50;56.20;;;;;;2341865;54;21107;-69
2023/08/24 04:40:51;;;;;;;3.65;2.08;;;24.50;56.20;;;;;;2341489;54;21541;-73
2023/08/24 04:43:17;;;;;;;4.00;2.17;;;24.50;56.20;;;;;;2310120;54;21010;-71
2023/08/24 04:45:46;;;;;;;3.58;2.17;;;24.50;56.10;;;;;;2574281;53;21001;-68
2023/08/24 04:48:12;;;;;;;2.80;1.62;;;24.40;56.00;;;;;;2336927;54;20973;-72
2023/08/24 04:50:44;;;;;;;2.85;1.73;;;24.50;56.10;;;;;;2581206;53;20945;-72
2023/08/24 04:53:16;;;;;;;3.47;1.95;;;24.40;56.10;;;;;;2337239;54;20925;-69
2023/08/24 04:55:47;;;;;;;4.30;2.42;;;24.40;56.20;;;;;;2336448;54;20913;-73
2023/08/24 04:58:16;;;;;;;4.65;2.25;;;24.40;56.20;;;;;;2582046;53;21354;-70
2023/08/24 05:00:43;;;;;;;3.20;2.20;;;24.40;56.20;;;;;;2580945;53;20997;-68
2023/08/24 05:03:09;;;;;;;3.78;2.50;;;24.40;56.30;;;;;;2327870;54;22024;-69
2023/08/24 05:05:36;;;;;;;3.15;1.98;;;24.40;56.30;;;;;;2318799;54;21017;-70
2023/08/24 05:08:03;;;;;;;3.92;2.30;;;24.40;56.40;;;;;;2558594;53;21476;-69
2023/08/24 05:10:33;;;;;;;3.40;2.05;;;24.40;56.40;;;;;;2566438;53;21470;-69
2023/08/24 05:12:59;;;;;;;3.85;2.30;;;24.40;56.50;;;;;;2580980;53;20984;-69
2023/08/24 05:15:26;;;;;;;3.60;2.20;;;24.30;56.30;;;;;;2581395;53;20941;-70
2023/08/24 05:17:55;;;;;;;3.62;2.17;;;24.30;56.40;;;;;;2580229;53;21344;-69
2023/08/24 05:20:22;;;;;;;4.43;2.12;;;24.30;56.40;;;;;;2581484;53;21758;-69
2023/08/24 05:22:48;;;;;;;3.35;1.83;;;24.30;56.50;;;;;;2336394;54;21442;-69
2023/08/24 05:25:17;;;;;;;3.35;1.83;;;24.30;56.60;;;;;;2336160;54;21367;-69
2023/08/24 05:27:46;;;;;;;2.90;1.90;;;24.30;56.60;;;;;;2581205;53;21048;-69
2023/08/24 05:30:13;;;;;;;3.75;2.20;;;24.30;56.60;;;;;;2336862;54;21035;-70
2023/08/24 05:32:40;;;;;;;3.45;2.25;;;24.30;56.70;;;;;;2336367;54;20924;-69
2023/08/24 05:35:07;;;;;;;3.80;2.15;;;24.30;56.80;;;;;;2580402;53;21057;-70
2023/08/24 05:37:33;;;;;;;5.10;3.05;;;24.30;56.90;;;;;;2580931;53;20964;-70
2023/08/24 05:40:00;;;;;;;4.18;2.55;;;24.30;57.00;;;;;;2322536;54;20935;-69
2023/08/24 05:42:31;;;;;;;3.80;2.55;;;24.30;57.20;;;;;;2323225;54;20993;-69
2023/08/24 05:44:57;;;;;;;4.10;2.67;;;24.30;57.30;;;;;;2580272;53;20949;-69
2023/08/24 05:47:26;;;;;;;4.32;3.03;;;24.30;57.40;;;;;;2336095;54;21000;-69
2023/08/24 05:49:52;;;;;;;4.78;2.97;;;24.30;57.60;;;;;;2335467;54;20937;-74
2023/08/24 05:52:19;;;;;;;4.87;2.97;;;24.30;57.50;;;;;;2564006;53;20923;-68
2023/08/24 05:54:45;;;;;;;3.87;2.70;;;24.30;57.60;;;;;;2319900;54;20934;-70
2023/08/24 05:57:12;;;;;;;4.87;2.78;;;24.40;57.80;;;;;;2336094;54;21025;-69
2023/08/24 05:59:38;;;;;;;3.78;2.47;;;24.40;57.70;;;;;;2336500;54;21001;-68
2023/08/24 06:02:04;;;;;;;3.70;2.45;;;24.40;57.70;;;;;;2581116;53;21015;-72
2023/08/24 06:04:31;;;;;;;3.30;2.20;;;24.40;57.70;;;;;;2579741;53;20945;-70
2023/08/24 06:06:57;;;;;;;3.78;2.58;;;24.50;57.70;;;;;;2580465;53;20957;-72
2023/08/24 06:09:23;;;;;;;6.15;2.40;;;24.40;57.60;;;;;;2336012;54;20933;-69
2023/08/24 06:11:50;;;;;;;3.67;2.40;;;24.50;57.70;;;;;;2335933;54;21009;-67
2023/08/24 06:14:16;;;;;;;3.58;2.40;;;24.50;57.70;;;;;;2336184;54;21016;-70
2023/08/24 06:16:42;;;;;;;3.80;2.85;;;24.60;57.80;;;;;;2335827;54;20957;-71
2023/08/24 06:19:09;;;;;;;5.25;3.03;;;24.50;57.70;;;;;;2336639;54;20945;-70
2023/08/24 06:21:35;;;;;;;4.50;3.00;;;24.60;57.80;;;;;;2289489;54;2603975;-71
2023/08/24 06:24:03;;;;;;;4.35;3.08;;;24.60;57.80;;;;;;2315052;54;20945;-69
2023/08/24 06:26:31;;;;;;;4.57;3.37;;;24.60;57.80;;;;;;2578592;53;21044;-69
2023/08/24 06:28:57;;;;;;;4.25;2.67;;;24.60;57.80;;;;;;2544534;53;21056;-69
2023/08/24 06:31:23;;;;;;;4.10;2.72;;;24.60;57.80;;;;;;2336148;54;20968;-69
2023/08/24 06:33:50;;;;;;;4.62;3.10;;;24.60;57.80;;;;;;2335682;54;21016;-70
2023/08/24 06:36:17;;;;;;;12.75;3.85;;;24.70;58.00;;;;;;2581244;53;20972;-71
2023/08/24 06:38:43;;;;;;;7.25;2.90;;;24.70;58.20;;;;;;2335352;54;20949;-69
2023/08/24 06:41:12;;;;;;;6.50;3.37;;;24.70;58.30;;;;;;2580866;53;21013;-72
2023/08/24 06:43:39;;;;;;;4.57;2.95;;;24.70;58.30;;;;;;2335873;54;20937;-68
2023/08/24 06:46:08;;;;;;;4.50;2.92;;;24.80;58.30;;;;;;2580593;53;20929;-69
2023/08/24 06:48:35;;;;;;;4.55;2.78;;;24.80;58.30;;;;;;2335721;54;21033;-70
2023/08/24 06:51:05;;;;;;;4.30;2.83;;;24.80;58.30;;;;;;2580841;53;21001;-70
2023/08/24 06:53:32;;;;;;;3.70;2.55;;;24.80;58.30;;;;;;2335808;54;20981;-69
2023/08/24 06:56:01;;;;;;;5.97;2.67;;;24.80;58.20;;;;;;2335432;54;21033;-69
2023/08/24 06:58:27;;;;;;;3.92;2.50;;;24.90;58.20;;;;;;2336822;54;20949;-70
2023/08/24 07:00:55;;;;;;;3.45;2.30;;;24.90;58.10;;;;;;2581283;53;21000;-69
2023/08/24 07:03:21;;;;;;;4.22;2.80;;;24.90;58.00;;;;;;2337416;54;20968;-70
2023/08/24 07:05:49;;;;;;;4.40;2.90;;;24.90;58.00;;;;;;2335747;54;20933;-72
2023/08/24 07:08:16;;;;;;;4.20;2.78;;;24.90;58.00;;;;;;2580863;53;21005;-70
2023/08/24 07:10:42;;;;;;;5.07;2.50;;;24.90;58.00;;;;;;2336454;54;21412;-71
2023/08/24 07:13:10;;;;;;;3.72;2.70;;;24.90;58.00;;;;;;2336693;54;21514;-71
2023/08/24 07:15:37;;;;;;;4.10;2.58;;;25.00;58.10;;;;;;2580879;53;21534;-72
2023/08/24 07:18:05;;;;;;;5.80;2.45;;;25.00;58.10;;;;;;2335963;54;21013;-70
2023/08/24 07:20:32;;;;;;;3.65;2.65;;;25.00;58.20;;;;;;2335451;54;21080;-72
2023/08/24 07:22:59;;;;;;;4.10;2.62;;;25.00;58.30;;;;;;2579269;53;20973;-69
2023/08/24 07:25:27;;;;;;;5.40;2.75;;;25.00;58.30;;;;;;2543673;53;20997;-70
2023/08/24 07:27:58;;;;;;;4.03;2.55;;;25.10;58.30;;;;;;2336190;54;20980;-69
2023/08/24 07:30:26;;;;;;;4.53;2.80;;;25.10;58.30;;;;;;2308904;55;21009;-70
2023/08/24 07:32:58;;;;;;;3.95;2.60;;;25.20;58.40;;;;;;2335293;54;20933;-70
2023/08/24 07:35:27;;;;;;;3.80;2.85;;;25.20;58.40;;;;;;2337029;54;21013;-70
2023/08/24 07:37:53;;;;;;;4.20;2.92;;;25.20;58.40;;;;;;2579757;53;21045;-73
2023/08/24 07:40:20;;;;;;;4.72;3.20;;;25.30;58.50;;;;;;2574078;53;20957;-71
2023/08/24 07:42:47;;;;;;;4.40;3.50;;;25.30;58.60;;;;;;2522803;54;21607;-70
2023/08/24 07:45:14;;;;;;;3.75;2.87;;;25.40;58.70;;;;;;2307001;54;21032;-68
2023/08/24 07:47:41;;;;;;;4.35;2.83;;;25.40;58.60;;;;;;2313014;54;20989;-68
2023/08/24 07:50:08;;;;;;;4.37;3.20;;;25.40;58.60;;;;;;2580357;53;21521;-68
2023/08/24 07:52:35;;;;;;;4.53;2.92;;;25.50;58.60;;;;;;2335857;54;21075;-73
2023/08/24 07:55:03;;;;;;;4.07;2.70;;;25.60;58.70;;;;;;2338512;54;21029;-70
2023/08/24 07:57:31;;;;;;;4.05;2.65;;;25.60;58.70;;;;;;2544605;53;21411;-70
2023/08/24 07:59:59;;;;;;;3.70;2.60;;;25.70;58.80;;;;;;2336286;54;21012;-71
2023/08/24 08:02:27;;;;;;;4.07;2.70;;;25.80;59.30;;;;;;2308193;54;20986;-70
2023/08/24 08:04:58;;;;;;;4.62;3.03;;;25.80;58.60;;;;;;2540403;54;20926;-70
2023/08/24 08:07:24;;;;;;;3.67;2.50;;;25.90;58.70;;;;;;2304336;54;21449;-71
2023/08/24 08:09:57;;;;;;;4.50;2.75;;;26.00;58.70;;;;;;2309294;54;20963;-70
2023/08/24 08:12:23;;;;;;;;;;;26.00;58.60;;;;;;2313267;54;21342;-70
2023/08/24 08:14:50;;;;;;;3.92;2.35;;;26.10;58.60;;;;;;2309331;54;20448;-70
2023/08/24 08:17:17;;;;;;;4.20;2.83;;;26.20;58.50;;;;;;2548424;54;20955;-70
2023/08/24 08:19:43;;;;;;;4.25;2.67;;;26.30;58.50;;;;;;2547233;54;20939;-70
2023/08/24 08:22:13;;;;;;;3.60;2.55;;;26.30;58.40;;;;;;2309844;54;21003;-71
2023/08/24 08:24:42;;;;;;;5.37;3.07;;;26.30;58.40;;;;;;2548425;54;20982;-72
2023/08/24 08:27:08;;;;;;;3.95;2.72;;;26.40;58.40;;;;;;2309272;54;21448;-71
2023/08/24 08:29:34;;;;;;;4.07;2.90;;;26.50;58.40;;;;;;2548256;54;21051;-72
2023/08/24 08:32:01;;;;;;;4.72;3.25;;;26.50;58.40;;;;;;2548869;54;20959;-71
2023/08/24 08:34:27;;;;;;;5.05;2.80;;;26.60;58.40;;;;;;2309595;54;21007;-70
2023/08/24 08:36:54;;;;;;;5.12;2.95;;;26.70;58.50;;;;;;2548625;54;21810;-70
2023/08/24 08:39:20;;;;;;;4.97;3.35;;;26.70;58.50;;;;;;2549079;54;21003;-71
2023/08/24 08:41:47;;;;;;;4.25;3.35;;;26.80;58.60;;;;;;2310509;54;20958;-71
2023/08/24 08:44:14;;;;;;;4.07;2.80;;;26.80;58.40;;;;;;2542222;54;20963;-70
2023/08/24 08:46:42;;;;;;;6.00;3.03;;;26.90;58.40;;;;;;2308668;54;21456;-68
2023/08/24 08:49:11;;;;;;;4.57;2.72;;;27.00;58.40;;;;;;2307649;54;20975;-70
2023/08/24 08:51:39;;;;;;;4.07;2.83;;;27.00;58.30;;;;;;2307417;54;21011;-70
2023/08/24 08:54:06;;;;;;;3.75;2.75;;;27.10;58.30;;;;;;2547075;54;21003;-70
2023/08/24 08:56:33;;;;;;;4.20;2.85;;;27.10;58.20;;;;;;2308342;55;20921;-70
2023/08/24 08:59:00;;;;;;;3.70;2.53;;;27.20;58.20;;;;;;2317450;55;21571;-74
2023/08/24 09:01:29;;;;;;;4.82;2.83;;;27.20;58.20;;;;;;2584473;53;21065;-73
2023/08/24 09:03:56;;;;;;;4.32;3.12;;;27.30;58.20;;;;;;2339251;54;20961;-72
2023/08/24 09:06:25;;;;;;;5.70;3.00;;;27.30;58.20;;;;;;2339013;54;21043;-71
2023/08/24 09:08:52;;;;;;;4.05;2.80;;;27.40;58.20;;;;;;2319824;54;20962;-71
2023/08/24 09:11:18;;;;;;;4.25;2.65;;;27.50;58.20;;;;;;2582151;53;21016;-71
2023/08/24 09:13:45;;;;;;;3.97;2.60;;;27.50;58.10;;;;;;2547971;53;20967;-75
2023/08/24 09:16:15;;;;;;;4.15;2.60;;;27.60;58.10;;;;;;2335587;54;21449;-70
2023/08/24 09:18:46;;;;;;;4.30;3.03;;;27.70;58.00;;;;;;2335539;54;20992;-70
2023/08/24 09:21:14;;;;;;;3.97;2.78;;;27.70;57.90;;;;;;2555755;53;20970;-70
2023/08/24 09:23:53;;;;;;;4.30;2.75;;;27.80;57.80;;;;;;2573531;53;21321;-69
2023/08/24 09:26:33;;;;;;;5.10;3.28;;;27.90;57.80;;;;;;2334480;54;20987;-68
2023/08/24 09:29:00;;;;;;;4.40;3.08;;;27.90;57.90;;;;;;2333859;54;21245;-70
2023/08/24 09:31:37;;;;;;;3.67;2.60;;;28.00;57.80;;;;;;2334605;54;21000;-71
2023/08/24 09:34:03;;;;;;;4.57;3.00;;;28.10;57.90;;;;;;2578230;53;21999;-69
2023/08/24 09:36:33;;;;;;;3.92;2.67;;;28.10;57.80;;;;;;2333007;54;21075;-70
2023/08/24 09:39:00;;;;;;;3.15;2.35;;;28.20;57.70;;;;;;2577511;53;21611;-72
2023/08/24 09:41:58;;;;;;;4.32;2.45;;;28.30;57.80;;;;;;2578064;53;20949;-70
2023/08/24 09:44:26;;;;;;;4.15;2.47;;;28.40;57.80;;;;;;2336828;54;21826;-73
2023/08/24 09:46:56;;;;;;;4.12;2.65;;;28.40;57.70;;;;;;2336728;54;21846;-71
2023/08/24 09:49:22;;;;;;;4.45;2.87;;;28.50;57.60;;;;;;2582627;53;21073;-71
2023/08/24 09:51:49;;;;;;;3.95;2.62;;;28.60;57.60;;;;;;2581345;53;20925;-71
2023/08/24 09:54:16;;;;;;;4.00;2.42;;;28.60;57.50;;;;;;2556072;53;21792;-71
2023/08/24 09:56:43;;;;;;;4.75;3.03;;;28.70;57.50;;;;;;2571388;53;21021;-71
2023/08/24 09:59:13;;;;;;;3.70;2.78;;;28.80;57.60;;;;;;2334110;54;21288;-69
2023/08/24 10:01:43;;;;;;;4.30;2.80;;;28.90;57.40;;;;;;2302600;54;21063;-69
2023/08/24 10:04:11;;;;;;;;;;;29.00;57.50;;;;;;2308645;55;21013;-69
2023/08/24 10:06:39;;;;;;;5.00;2.90;;;29.00;57.30;;;;;;2314405;55;20125;-70
2023/08/24 10:09:07;;;;;;;3.80;2.72;;;29.10;57.30;;;;;;2580942;53;21088;-72
2023/08/24 10:11:36;;;;;;;5.03;2.78;;;29.10;57.20;;;;;;2581969;53;21048;-70
2023/08/24 10:14:08;;;;;;;4.18;2.70;;;29.20;57.00;;;;;;2335813;54;21151;-70
2023/08/24 10:16:35;;;;;;;;;;;29.30;56.80;;;;;;2322663;54;20986;-71
2023/08/24 10:19:01;;;;;;;5.45;2.62;;;29.40;56.80;;;;;;2326176;54;20497;-72
2023/08/24 10:21:28;;;;;;;3.80;2.37;;;29.40;56.80;;;;;;2580010;53;20956;-71
2023/08/24 10:23:56;;;;;;;3.55;2.37;;;29.50;56.80;;;;;;2334200;54;20968;-71
2023/08/24 10:26:24;;;;;;;4.85;2.70;;;29.60;56.80;;;;;;2334270;54;20945;-71
2023/08/24 10:28:53;;;;;;;6.37;3.33;;;29.60;56.80;;;;;;2334722;54;21598;-69
2023/08/24 10:31:20;;;;;;;4.45;2.67;;;29.70;56.50;;;;;;2335934;54;20961;-74
2023/08/24 10:33:46;;;;;;;4.05;2.70;;;29.70;56.40;;;;;;2334567;54;20984;-71
2023/08/24 10:36:16;;;;;;;4.22;2.83;;;29.80;56.30;;;;;;2333109;54;20936;-70
2023/08/24 10:38:43;;;;;;;3.72;2.53;;;29.80;56.00;;;;;;2333276;54;21028;-70
2023/08/24 10:41:12;;;;;;;4.00;2.65;;;29.90;55.90;;;;;;2333882;54;20953;-73
2023/08/24 10:43:41;;;;;;;3.78;2.50;;;29.90;55.70;;;;;;2334229;54;21496;-70
2023/08/24 10:46:20;;;;;;;5.12;3.12;;;30.00;55.90;;;;;;2581046;53;21367;-71
2023/08/24 10:49:08;;;;;;;3.65;2.65;;;30.00;55.80;;;;;;2336398;54;20969;-72
2023/08/24 10:51:43;;;;;;;5.55;2.25;;;30.20;55.80;;;;;;2582079;53;20957;-74
2023/08/24 10:54:10;;;;;;;3.42;2.65;;;30.20;55.70;;;;;;2336750;54;20957;-71
2023/08/24 10:56:39;;;;;;;5.87;2.65;;;30.30;55.80;;;;;;2299189;55;20946;-71
2023/08/24 10:59:19;;;;;;;4.28;2.97;;;30.30;55.80;;;;;;2336573;54;21008;-71
2023/08/24 11:01:55;;;;;;;5.37;3.10;;;30.40;55.80;;;;;;2339634;54;20924;-70
2023/08/24 11:04:25;;;;;;;4.25;2.58;;;30.40;55.60;;;;;;2583185;53;21000;-71
2023/08/24 11:06:59;;;;;;;4.37;2.58;;;30.50;55.60;;;;;;2580973;53;20992;-71
2023/08/24 11:09:25;;;;;;;3.90;2.75;;;30.60;55.40;;;;;;2323705;54;21000;-71
2023/08/24 11:12:02;;;;;;;4.87;3.00;;;30.60;55.60;;;;;;2318903;54;20990;-70
2023/08/24 11:14:29;;;;;;;5.85;3.05;;;30.70;55.70;;;;;;2576703;53;20996;-72
2023/08/24 11:17:02;;;;;;;3.80;3.00;;;30.70;55.60;;;;;;2328235;54;21064;-69
2023/08/24 11:19:30;;;;;;;4.45;3.03;;;30.80;55.40;;;;;;2328673;54;21028;-73
2023/08/24 11:21:56;;;;;;;3.90;3.00;;;30.90;55.40;;;;;;2573529;53;20964;-70
2023/08/24 11:24:24;;;;;;;6.90;3.08;;;30.90;55.30;;;;;;2570949;53;20965;-70
2023/08/24 11:26:52;;;;;;;4.80;3.30;;;31.00;55.30;;;;;;2329186;54;20967;-69
2023/08/24 11:29:18;;;;;;;5.55;3.17;;;31.10;55.30;;;;;;2327566;54;20944;-70
2023/08/24 11:31:45;;;;;;;3.87;2.60;;;31.10;55.30;;;;;;2569149;53;21383;-69
2023/08/24 11:34:17;;;;;;;3.83;2.65;;;31.20;55.10;;;;;;2566985;53;21119;-69
2023/08/24 11:36:47;;;;;;;3.92;2.67;;;31.30;54.60;;;;;;2288851;55;20948;-69
2023/08/24 11:39:25;;;;;;;4.43;2.83;;;31.30;54.60;;;;;;2328149;54;21005;-73
2023/08/24 11:42:02;;;;;;;5.10;3.22;;;31.40;54.50;;;;;;2326493;54;20965;-72
2023/08/24 11:44:48;;;;;;;3.62;2.67;;;31.50;54.30;;;;;;2562654;53;20956;-70
2023/08/24 11:47:15;;;;;;;5.35;3.08;;;31.50;54.40;;;;;;2560237;53;21885;-69
2023/08/24 11:49:42;;;;;;;4.65;3.10;;;31.60;54.50;;;;;;2321990;54;20968;-69
2023/08/24 11:52:08;;;;;;;5.80;3.10;;;31.60;54.50;;;;;;2323007;54;21000;-70
2023/08/24 11:54:38;;;;;;;4.50;3.33;;;31.60;54.30;;;;;;2564699;53;21020;-73
2023/08/24 11:57:10;;;;;;;3.72;2.90;;;31.70;54.10;;;;;;2565072;53;21548;-70
2023/08/24 11:59:37;;;;;;;4.30;2.70;;;31.80;54.30;;;;;;2324131;54;21726;-70
2023/08/24 12:02:03;;;;;;;4.20;3.20;;;31.80;54.10;;;;;;2323175;54;21535;-71
2023/08/24 12:04:44;;;;;;;3.90;2.72;;;31.80;54.00;;;;;;2319744;54;21832;-68
2023/08/24 12:07:12;;;;;;;5.25;2.75;;;31.90;54.00;;;;;;2321089;54;21806;-69
2023/08/24 12:09:41;;;;;;;4.03;2.90;;;31.90;53.90;;;;;;2308630;54;21053;-68
2023/08/24 12:12:17;;;;;;;6.47;3.12;;;32.00;53.80;;;;;;2297879;54;21568;-69
2023/08/24 12:14:44;;;;;;;3.35;2.50;;;32.00;53.50;;;;;;2330315;54;20967;-70
2023/08/24 12:17:11;;;;;;;4.32;3.12;;;32.10;53.80;;;;;;2333534;54;22255;-67
2023/08/24 12:19:42;;;;;;;4.30;3.17;;;32.10;53.80;;;;;;2332831;54;20961;-67
2023/08/24 12:22:12;;;;;;;4.80;3.25;;;32.10;53.60;;;;;;2334064;54;20957;-68
2023/08/24 12:24:45;;;;;;;4.07;2.80;;;32.20;53.60;;;;;;2332031;54;21131;-72
2023/08/24 12:27:22;;;;;;;5.22;3.00;;;32.30;53.60;;;;;;2328425;54;21846;-69
2023/08/24 12:29:48;;;;;;;4.32;2.90;;;32.30;53.60;;;;;;2288624;55;20917;-68
2023/08/24 12:32:16;;;;;;;3.67;2.67;;;32.40;53.50;;;;;;2564381;53;21036;-69
2023/08/24 12:34:45;;;;;;;3.58;2.60;;;32.40;53.50;;;;;;2567298;53;20976;-70
2023/08/24 12:37:12;;;;;;;3.85;2.78;;;32.50;53.60;;;;;;2323242;54;20960;-68
2023/08/24 12:39:39;;;;;;;3.62;2.33;;;32.50;53.50;;;;;;2325567;54;21064;-70
2023/08/24 12:42:06;;;;;;;3.45;2.47;;;32.60;53.30;;;;;;2324456;54;21009;-70
2023/08/24 12:44:33;;;;;;;3.83;2.42;;;32.60;53.30;;;;;;2326016;54;20937;-69
2023/08/24 12:47:00;;;;;;;3.67;2.47;;;32.70;53.20;;;;;;2322674;54;21882;-70
2023/08/24 12:49:27;;;;;;;6.07;2.53;;;32.70;53.00;;;;;;2328383;54;21879;-70
2023/08/24 12:51:53;;;;;;;3.78;2.42;;;32.80;53.00;;;;;;2325611;54;20953;-71
2023/08/24 12:54:24;;;;;;;4.32;2.80;;;32.80;53.00;;;;;;2326084;54;21071;-70